createdAt,value
2018-03-08T00:01:35.160Z,66.45
2018-03-08T00:04:03.076Z,66.15
2018-03-08T00:06:31.018Z,62.28
2018-03-08T00:08:58.933Z,63.17
2018-03-08T00:11:26.849Z,65.57
2018-03-08T00:13:54.776Z,64.50
2018-03-08T00:16:22.688Z,63.10
2018-03-08T00:18:50.593Z,59.25
2018-03-08T00:21:18.500Z,63.03
2018-03-08T00:23:46.417Z,60.75
2018-03-08T00:26:14.337Z,58.58
2018-03-08T00:28:49.796Z,62.00
2018-03-08T00:31:17.713Z,63.38
2018-03-08T00:33:45.631Z,58.55
2018-03-08T00:36:13.589Z,54.67
2018-03-08T00:38:41.513Z,61.00
2018-03-08T00:41:09.441Z,52.92
2018-03-08T00:43:37.357Z,61.13
2018-03-08T00:46:05.260Z,58.33
2018-03-08T00:48:33.181Z,59.83
2018-03-08T00:51:01.513Z,60.67
2018-03-08T00:53:29.432Z,60.22
2018-03-08T00:55:57.345Z,63.97
2018-03-08T00:58:25.244Z,60.33
2018-03-08T01:00:53.176Z,62.88
2018-03-08T01:03:21.095Z,56.95
2018-03-08T01:05:49.017Z,63.35
2018-03-08T01:08:16.921Z,57.25
2018-03-08T01:10:44.844Z,59.90
2018-03-08T01:13:12.768Z,54.63
2018-03-08T01:15:40.682Z,57.70
2018-03-08T01:18:08.609Z,57.30
2018-03-08T01:20:36.522Z,60.70
2018-03-08T01:23:04.795Z,62.35
2018-03-08T01:25:32.729Z,64.78
2018-03-08T01:28:00.644Z,61.85
2018-03-08T01:30:28.545Z,59.42
2018-03-08T01:32:56.461Z,52.35
2018-03-08T01:35:24.378Z,57.85
2018-03-08T01:37:52.285Z,56.70
2018-03-08T01:40:20.197Z,55.78
2018-03-08T01:42:48.125Z,52.85
2018-03-08T01:45:16.038Z,59.00
2018-03-08T01:47:43.945Z,54.50
2018-03-08T01:50:11.856Z,56.60
2018-03-08T01:52:40.321Z,57.75
2018-03-08T01:55:08.232Z,59.63
2018-03-08T01:57:36.144Z,61.90
2018-03-08T02:00:04.052Z,57.87
2018-03-08T02:02:31.971Z,54.25
2018-03-08T02:04:59.881Z,61.03
2018-03-08T02:07:27.804Z,58.60
2018-03-08T02:09:55.716Z,61.57
2018-03-08T02:12:23.616Z,59.27
2018-03-08T02:14:51.544Z,57.10
2018-03-08T02:17:19.447Z,55.80
2018-03-08T02:19:47.364Z,57.65
2018-03-08T02:22:15.308Z,59.60
2018-03-08T02:24:43.218Z,59.03
2018-03-08T02:27:11.135Z,60.35
2018-03-08T02:29:39.036Z,61.92
2018-03-08T02:32:06.953Z,62.67
2018-03-08T02:34:34.856Z,63.23
2018-03-08T02:37:02.777Z,60.35
2018-03-08T02:39:31.017Z,64.80
2018-03-08T02:41:58.928Z,60.83
2018-03-08T02:44:26.877Z,62.33
2018-03-08T02:46:55.772Z,63.90
2018-03-08T02:49:23.677Z,61.88
2018-03-08T02:51:51.617Z,62.90
2018-03-08T02:54:19.532Z,64.78
2018-03-08T02:56:48.052Z,65.13
2018-03-08T02:59:15.973Z,63.92
2018-03-08T03:01:43.882Z,61.60
2018-03-08T03:04:11.791Z,57.50
2018-03-08T03:06:39.725Z,61.17
2018-03-08T03:09:07.662Z,65.97
2018-03-08T03:11:35.582Z,66.15
2018-03-08T03:14:03.514Z,62.88
2018-03-08T03:16:31.424Z,65.45
2018-03-08T03:18:59.349Z,66.30
2018-03-08T03:21:27.285Z,68.93
2018-03-08T03:23:55.197Z,70.85
2018-03-08T03:26:23.098Z,71.03
2018-03-08T03:28:51.007Z,69.45
2018-03-08T03:31:18.921Z,69.37
2018-03-08T03:33:46.824Z,66.40
2018-03-08T03:36:14.750Z,75.35
2018-03-08T03:38:42.648Z,67.47
2018-03-08T03:41:10.553Z,77.65
2018-03-08T03:43:38.496Z,80.28
2018-03-08T03:46:06.412Z,72.18
2018-03-08T03:48:34.316Z,71.25
2018-03-08T03:51:02.231Z,71.50
2018-03-08T03:53:30.132Z,70.60
2018-03-08T03:55:58.066Z,77.90
2018-03-08T03:58:25.971Z,72.53
2018-03-08T04:00:54.404Z,76.15
2018-03-08T04:03:22.318Z,74.47
2018-03-08T04:05:50.230Z,76.28
2018-03-08T04:08:18.169Z,73.25
2018-03-08T04:10:46.080Z,74.35
2018-03-08T04:13:13.989Z,82.12
2018-03-08T04:15:41.945Z,87.05
2018-03-08T04:18:09.901Z,83.40
2018-03-08T04:20:37.801Z,80.03
2018-03-08T04:23:06.241Z,80.07
2018-03-08T04:25:34.152Z,82.10
2018-03-08T04:28:02.065Z,79.03
2018-03-08T04:30:30.004Z,80.38
2018-03-08T04:32:57.930Z,74.07
2018-03-08T04:35:25.847Z,80.70
2018-03-08T04:37:53.757Z,82.55
2018-03-08T04:40:21.656Z,80.40
2018-03-08T04:42:49.571Z,74.28
2018-03-08T04:45:17.497Z,75.12
2018-03-08T04:47:45.405Z,75.55
2018-03-08T04:50:14.045Z,80.47
2018-03-08T04:52:42.014Z,72.28
2018-03-08T04:55:09.921Z,83.62
2018-03-08T04:57:37.830Z,78.95
2018-03-08T05:00:05.756Z,72.87
2018-03-08T05:02:33.673Z,72.93
2018-03-08T05:05:01.577Z,71.80
2018-03-08T05:07:29.807Z,74.55
2018-03-08T05:09:57.719Z,74.47
2018-03-08T05:12:25.637Z,66.25
2018-03-08T05:14:53.549Z,73.70
2018-03-08T05:17:21.471Z,72.62
2018-03-08T05:19:49.380Z,71.33
2018-03-08T05:22:17.285Z,72.45
2018-03-08T05:24:45.225Z,67.53
2018-03-08T05:27:13.156Z,67.30
2018-03-08T05:29:41.073Z,70.82
2018-03-08T05:32:09.013Z,67.40
2018-03-08T05:34:36.966Z,69.28
2018-03-08T05:37:04.876Z,74.55
2018-03-08T05:39:32.780Z,74.90
2018-03-08T05:42:00.703Z,65.47
2018-03-08T05:44:28.628Z,69.60
2018-03-08T05:46:56.533Z,68.97
2018-03-08T05:49:24.441Z,72.28
2018-03-08T05:51:52.361Z,69.37
2018-03-08T05:54:20.272Z,65.97
2018-03-08T05:56:48.777Z,63.92
2018-03-08T05:59:16.712Z,65.72
2018-03-08T06:01:44.650Z,61.05
2018-03-08T06:04:12.564Z,58.50
2018-03-08T06:06:40.489Z,67.20
2018-03-08T06:09:08.413Z,65.30
2018-03-08T06:11:36.338Z,57.22
2018-03-08T06:14:04.242Z,60.60
2018-03-08T06:16:32.164Z,53.10
2018-03-08T06:19:00.077Z,35.37
2018-03-08T06:21:27.996Z,36.63
2018-03-08T06:23:55.899Z,28.10
2018-03-08T06:26:24.048Z,29.70
2018-03-08T06:28:51.951Z,24.37
2018-03-08T06:31:19.852Z,20.13
2018-03-08T06:33:47.776Z,19.30
2018-03-08T06:36:15.693Z,20.27
2018-03-08T06:38:43.605Z,20.03
2018-03-08T06:41:11.517Z,20.40
2018-03-08T06:43:39.426Z,22.63
2018-03-08T06:46:07.329Z,26.53
2018-03-08T06:48:35.232Z,25.30
2018-03-08T06:51:03.155Z,23.87
2018-03-08T06:53:31.052Z,24.33
2018-03-08T06:55:58.981Z,23.63
2018-03-08T06:58:26.888Z,23.67
2018-03-08T07:00:54.794Z,22.40
2018-03-08T07:03:22.697Z,23.10
2018-03-08T07:05:50.613Z,26.53
2018-03-08T07:08:18.941Z,24.50
2018-03-08T07:10:46.857Z,24.27
2018-03-08T07:13:14.762Z,25.87
2018-03-08T07:15:42.661Z,24.03
2018-03-08T07:18:10.581Z,22.73
2018-03-08T07:20:38.476Z,22.40
2018-03-08T07:23:06.397Z,23.40
2018-03-08T07:25:34.721Z,22.37
2018-03-08T07:28:02.645Z,23.40
2018-03-08T07:30:30.558Z,20.43
2018-03-08T07:32:58.524Z,19.83
2018-03-08T07:35:26.433Z,21.20
2018-03-08T07:37:54.363Z,20.43
2018-03-08T07:40:22.280Z,19.33
2018-03-08T07:42:50.185Z,20.27
2018-03-08T07:45:18.092Z,18.23
2018-03-08T07:47:46.242Z,17.30
2018-03-08T07:50:14.149Z,17.77
2018-03-08T07:52:42.057Z,16.93
2018-03-08T07:55:09.964Z,17.00
2018-03-08T07:57:37.874Z,15.43
2018-03-08T08:00:05.788Z,15.17
2018-03-08T08:02:33.697Z,13.37
2018-03-08T08:05:13.893Z,13.80
2018-03-08T08:07:54.231Z,15.50
2018-03-08T08:10:22.214Z,15.97
2018-03-08T08:12:50.109Z,13.90
2018-03-08T08:15:18.029Z,14.47
2018-03-08T08:17:45.929Z,15.13
2018-03-08T08:20:14.330Z,15.47
2018-03-08T08:22:42.237Z,15.60
2018-03-08T08:25:10.154Z,14.50
2018-03-08T08:27:38.073Z,13.83
2018-03-08T08:30:05.981Z,14.67
2018-03-08T08:32:33.885Z,13.80
2018-03-08T08:35:01.806Z,15.10
2018-03-08T08:37:30.093Z,13.93
2018-03-08T08:39:58.013Z,13.00
2018-03-08T08:42:25.958Z,14.80
2018-03-08T08:44:53.868Z,16.97
2018-03-08T08:47:21.764Z,16.10
2018-03-08T08:49:49.668Z,16.33
2018-03-08T08:52:17.576Z,17.27
2018-03-08T08:54:45.676Z,17.93
2018-03-08T08:57:13.636Z,14.67
2018-03-08T08:59:41.605Z,16.83
2018-03-08T09:02:09.521Z,17.10
2018-03-08T09:04:37.433Z,16.27
2018-03-08T09:07:05.341Z,16.20
2018-03-08T09:09:33.242Z,17.03
2018-03-08T09:12:01.147Z,22.40
2018-03-08T09:14:29.045Z,21.57
2018-03-08T09:16:56.950Z,18.70
2018-03-08T09:19:24.872Z,17.90
2018-03-08T09:21:52.801Z,17.47
2018-03-08T09:24:20.712Z,18.60
2018-03-08T09:26:48.644Z,17.73
2018-03-08T09:29:16.562Z,17.30
2018-03-08T09:31:44.485Z,19.03
2018-03-08T09:34:12.878Z,17.57
2018-03-08T09:36:40.784Z,20.97
2018-03-08T09:39:08.715Z,23.20
2018-03-08T09:41:36.606Z,21.50
2018-03-08T09:44:04.514Z,24.07
2018-03-08T09:46:32.427Z,20.67
2018-03-08T09:49:00.329Z,21.57
2018-03-08T09:51:28.548Z,23.80
2018-03-08T09:53:56.485Z,25.23
2018-03-08T09:56:24.365Z,20.63
2018-03-08T09:58:52.319Z,20.53
2018-03-08T10:01:20.213Z,23.23
2018-03-08T10:03:48.116Z,20.23
2018-03-08T10:06:16.033Z,21.30
2018-03-08T10:08:43.955Z,19.87
2018-03-08T10:11:11.854Z,20.40
2018-03-08T10:13:39.753Z,21.33
2018-03-08T10:16:07.650Z,19.50
2018-03-08T10:18:35.552Z,21.03
2018-03-08T10:21:03.482Z,20.77
2018-03-08T10:23:31.394Z,22.10
2018-03-08T10:25:59.831Z,19.03
2018-03-08T10:28:27.741Z,24.20
2018-03-08T10:30:55.644Z,20.40
2018-03-08T10:33:23.557Z,18.70
2018-03-08T10:35:51.478Z,20.47
2018-03-08T10:38:19.395Z,20.27
2018-03-08T10:40:47.309Z,20.30
2018-03-08T10:43:15.216Z,20.53
2018-03-08T10:45:43.116Z,20.40
2018-03-08T10:48:11.014Z,21.83
2018-03-08T10:50:38.920Z,22.53
2018-03-08T10:53:06.824Z,20.40
2018-03-08T10:55:34.740Z,22.17
2018-03-08T10:58:02.769Z,21.50
2018-03-08T11:00:36.751Z,19.90
2018-03-08T11:03:06.795Z,21.97
2018-03-08T11:05:39.407Z,21.13
2018-03-08T11:08:07.310Z,22.70
2018-03-08T11:10:35.225Z,20.77
2018-03-08T11:13:03.140Z,21.63
2018-03-08T11:15:31.040Z,21.63
2018-03-08T11:17:58.956Z,20.10
2018-03-08T11:20:26.861Z,23.17
2018-03-08T11:22:54.784Z,24.70
2018-03-08T11:25:23.276Z,28.53
2018-03-08T11:27:51.182Z,23.80
2018-03-08T11:30:19.107Z,22.10
2018-03-08T11:32:47.011Z,21.60
2018-03-08T11:35:14.906Z,21.23
2018-03-08T11:37:42.816Z,21.20
2018-03-08T11:40:10.721Z,20.57
2018-03-08T11:42:38.625Z,21.50
2018-03-08T11:45:06.537Z,20.70
2018-03-08T11:47:34.441Z,22.53
2018-03-08T11:50:02.380Z,19.67
2018-03-08T11:52:30.420Z,22.17
2018-03-08T11:54:58.395Z,23.00
2018-03-08T11:57:26.240Z,21.43
2018-03-08T11:59:54.176Z,20.17
2018-03-08T12:02:22.084Z,19.10
2018-03-08T12:04:49.989Z,20.67
2018-03-08T12:07:17.897Z,21.80
2018-03-08T12:09:45.801Z,19.90
2018-03-08T12:12:13.705Z,21.97
2018-03-08T12:14:41.596Z,17.10
2018-03-08T12:17:09.501Z,19.10
2018-03-08T12:19:37.405Z,17.33
2018-03-08T12:22:05.301Z,19.80
2018-03-08T12:24:33.205Z,18.93
2018-03-08T12:27:01.117Z,15.17
2018-03-08T12:29:29.026Z,15.77
2018-03-08T12:31:56.941Z,14.30
2018-03-08T12:34:24.836Z,16.23
2018-03-08T12:36:52.728Z,14.90
2018-03-08T12:39:20.645Z,12.20
2018-03-08T12:41:48.548Z,12.60
2018-03-08T12:44:16.457Z,11.50
2018-03-08T12:46:44.354Z,12.17
2018-03-08T12:49:12.258Z,14.90
2018-03-08T12:51:40.180Z,11.63
2018-03-08T12:54:08.453Z,11.00
2018-03-08T12:56:36.340Z,10.30
2018-03-08T12:59:04.237Z,10.50
2018-03-08T13:01:32.160Z,11.00
2018-03-08T13:04:00.049Z,11.27
2018-03-08T13:06:27.965Z,9.43
2018-03-08T13:08:55.873Z,9.87
2018-03-08T13:11:23.773Z,9.63
2018-03-08T13:13:51.689Z,9.77
2018-03-08T13:16:19.601Z,8.20
2018-03-08T13:18:47.550Z,8.20
2018-03-08T13:21:15.473Z,8.13
2018-03-08T13:23:43.388Z,9.17
2018-03-08T13:26:11.559Z,8.30
2018-03-08T13:28:39.654Z,7.90
2018-03-08T13:31:07.782Z,8.90
2018-03-08T13:33:36.570Z,7.47
2018-03-08T13:36:04.702Z,9.03
2018-03-08T13:38:32.612Z,8.60
2018-03-08T13:41:00.517Z,9.60
2018-03-08T13:43:28.428Z,7.17
2018-03-08T13:45:56.337Z,7.50
2018-03-08T13:48:24.242Z,9.00
2018-03-08T13:50:52.165Z,8.33
2018-03-08T13:53:20.059Z,10.10
2018-03-08T13:55:47.977Z,7.67
2018-03-08T13:58:15.877Z,10.23
2018-03-08T14:00:43.799Z,7.90
2018-03-08T14:03:11.740Z,8.30
2018-03-08T14:05:39.605Z,10.47
2018-03-08T14:08:07.565Z,7.60
2018-03-08T14:10:35.490Z,7.47
2018-03-08T14:13:03.364Z,7.87
2018-03-08T14:15:31.278Z,7.20
2018-03-08T14:17:59.161Z,8.47
2018-03-08T14:20:27.065Z,8.50
2018-03-08T14:22:55.325Z,7.93
2018-03-08T14:25:23.241Z,7.40
2018-03-08T14:27:51.142Z,7.40
2018-03-08T14:30:19.045Z,7.57
2018-03-08T14:32:46.945Z,7.23
2018-03-08T14:35:14.843Z,9.10
2018-03-08T14:37:42.732Z,6.23
2018-03-08T14:40:10.628Z,7.60
2018-03-08T14:42:38.564Z,6.80
2018-03-08T14:45:06.478Z,6.03
2018-03-08T14:47:34.442Z,5.33
2018-03-08T14:50:02.316Z,7.00
2018-03-08T14:52:30.208Z,5.20
2018-03-08T14:54:58.444Z,5.27
2018-03-08T14:57:26.350Z,4.87
2018-03-08T14:59:54.240Z,4.40
2018-03-08T15:02:22.159Z,4.97
2018-03-08T15:04:50.072Z,4.67
2018-03-08T15:07:17.976Z,9.40
2018-03-08T15:09:45.893Z,5.13
2018-03-08T15:12:14.092Z,4.10
2018-03-08T15:14:42.006Z,5.07
2018-03-08T15:17:09.908Z,4.80
2018-03-08T15:19:37.808Z,3.90
2018-03-08T15:22:05.721Z,4.30
2018-03-08T15:24:33.624Z,3.73
2018-03-08T15:27:01.529Z,6.73
2018-03-08T15:29:29.434Z,3.73
2018-03-08T15:31:57.329Z,4.27
2018-03-08T15:34:25.244Z,4.53
2018-03-08T15:36:53.145Z,4.07
2018-03-08T15:39:21.033Z,5.50
2018-03-08T15:41:48.938Z,3.97
2018-03-08T15:44:16.852Z,5.97
2018-03-08T15:46:44.765Z,3.93
2018-03-08T15:49:12.672Z,5.13
2018-03-08T15:51:41.089Z,4.53
2018-03-08T15:54:08.993Z,4.67
2018-03-08T15:56:36.892Z,4.50
2018-03-08T15:59:04.792Z,5.07
2018-03-08T16:01:32.699Z,4.27
2018-03-08T16:04:00.609Z,3.83
2018-03-08T16:06:40.920Z,4.70
2018-03-08T16:09:08.877Z,4.00
2018-03-08T16:11:36.793Z,7.03
2018-03-08T16:14:04.711Z,4.83
2018-03-08T16:16:32.628Z,2.70
2018-03-08T16:19:00.529Z,3.07
2018-03-08T16:21:37.945Z,3.10
2018-03-08T16:24:05.849Z,5.10
2018-03-08T16:26:33.736Z,3.43
2018-03-08T16:29:01.760Z,4.83
2018-03-08T16:31:29.561Z,5.57
2018-03-08T16:33:57.464Z,3.00
2018-03-08T16:36:25.369Z,4.07
2018-03-08T16:38:53.269Z,4.77
2018-03-08T16:41:21.160Z,2.97
2018-03-08T16:43:49.094Z,3.27
2018-03-08T16:46:17.029Z,5.43
2018-03-08T16:48:44.937Z,4.47
2018-03-08T16:51:12.840Z,5.77
2018-03-08T16:53:40.745Z,3.57
2018-03-08T16:56:08.642Z,3.60
2018-03-08T16:58:36.579Z,4.10
2018-03-08T17:01:05.009Z,4.20
2018-03-08T17:03:32.912Z,4.33
2018-03-08T17:06:00.824Z,6.10
2018-03-08T17:08:28.728Z,3.97
2018-03-08T17:10:56.651Z,4.30
2018-03-08T17:13:24.609Z,3.63
2018-03-08T17:15:52.482Z,6.90
2018-03-08T17:18:20.377Z,4.00
2018-03-08T17:20:48.288Z,5.40
2018-03-08T17:23:16.193Z,3.87
2018-03-08T17:25:44.104Z,3.70
2018-03-08T17:28:12.009Z,5.73
2018-03-08T17:30:39.908Z,5.20
2018-03-08T17:33:07.812Z,4.63
2018-03-08T17:35:35.724Z,3.80
2018-03-08T17:38:03.628Z,3.57
2018-03-08T17:40:31.533Z,2.77
2018-03-08T17:42:59.428Z,2.90
2018-03-08T17:45:27.332Z,3.00
2018-03-08T17:47:55.245Z,4.27
2018-03-08T17:50:23.155Z,7.07
2018-03-08T17:52:51.053Z,4.03
2018-03-08T17:55:19.537Z,4.20
2018-03-08T17:57:47.453Z,6.83
2018-03-08T18:00:15.368Z,4.07
2018-03-08T18:02:43.265Z,3.60
2018-03-08T18:05:11.205Z,4.37
2018-03-08T18:07:39.116Z,4.20
2018-03-08T18:10:07.032Z,4.07
2018-03-08T18:12:34.988Z,4.40
2018-03-08T18:15:02.896Z,5.70
2018-03-08T18:17:30.788Z,4.30
2018-03-08T18:19:58.688Z,4.07
2018-03-08T18:22:26.961Z,4.07
2018-03-08T18:24:54.865Z,4.93
2018-03-08T18:27:22.772Z,4.60
2018-03-08T18:29:50.700Z,4.67
2018-03-08T18:32:18.606Z,4.40
2018-03-08T18:34:46.525Z,4.00
2018-03-08T18:37:14.456Z,5.00
2018-03-08T18:39:42.361Z,4.57
2018-03-08T18:42:10.293Z,3.93
2018-03-08T18:44:38.201Z,4.40
2018-03-08T18:47:06.109Z,5.20
2018-03-08T18:49:34.013Z,4.50
2018-03-08T18:52:01.988Z,4.03
2018-03-08T18:54:30.261Z,4.80
2018-03-08T18:56:58.189Z,4.80
2018-03-08T18:59:26.097Z,6.00
2018-03-08T19:01:54.028Z,5.27
2018-03-08T19:04:21.940Z,5.13
2018-03-08T19:06:49.835Z,5.20
2018-03-08T19:09:17.741Z,6.37
2018-03-08T19:11:45.848Z,6.13
2018-03-08T19:14:13.744Z,6.00
2018-03-08T19:16:41.649Z,5.90
2018-03-08T19:19:09.550Z,6.20
2018-03-08T19:21:37.496Z,5.50
2018-03-08T19:24:05.407Z,5.87
2018-03-08T19:26:33.313Z,7.23
2018-03-08T19:29:01.225Z,6.40
2018-03-08T19:31:29.505Z,5.27
2018-03-08T19:33:57.448Z,4.80
2018-03-08T19:36:25.427Z,2.50
2018-03-08T19:38:53.347Z,3.20
2018-03-08T19:41:21.244Z,2.90
2018-03-08T19:43:49.141Z,3.73
2018-03-08T19:46:17.045Z,3.03
2018-03-08T19:48:44.951Z,3.43
2018-03-08T19:51:12.849Z,3.87
2018-03-08T19:53:40.754Z,3.03
2018-03-08T19:56:08.893Z,3.93
2018-03-08T19:58:36.857Z,3.47
2018-03-08T20:01:04.785Z,2.93
2018-03-08T20:03:32.688Z,2.93
2018-03-08T20:06:00.601Z,2.57
2018-03-08T20:08:28.497Z,2.50
2018-03-08T20:10:56.405Z,3.43
2018-03-08T20:13:24.300Z,4.70
2018-03-08T20:15:52.290Z,2.03
2018-03-08T20:18:20.201Z,2.60
2018-03-08T20:20:48.111Z,5.57
2018-03-08T20:23:16.364Z,2.53
2018-03-08T20:25:44.296Z,1.90
2018-03-08T20:28:12.241Z,2.47
2018-03-08T20:30:40.146Z,1.87
2018-03-08T20:33:08.049Z,1.63
2018-03-08T20:35:35.961Z,2.70
2018-03-08T20:38:04.661Z,1.47
2018-03-08T20:40:32.571Z,1.50
2018-03-08T20:43:00.481Z,2.20
2018-03-08T20:45:28.383Z,1.53
2018-03-08T20:47:56.289Z,2.20
2018-03-08T20:50:24.200Z,2.20
2018-03-08T20:52:52.492Z,1.50
2018-03-08T20:55:20.447Z,2.90
2018-03-08T20:57:48.322Z,2.40
2018-03-08T21:00:16.257Z,2.63
2018-03-08T21:02:44.165Z,1.90
2018-03-08T21:05:12.073Z,2.33
2018-03-08T21:07:39.981Z,4.50
2018-03-08T21:10:07.881Z,2.33
2018-03-08T21:12:35.777Z,2.27
2018-03-08T21:15:03.724Z,2.27
2018-03-08T21:17:31.612Z,3.23
2018-03-08T21:19:59.534Z,1.73
2018-03-08T21:22:27.697Z,1.50
2018-03-08T21:24:55.593Z,1.50
2018-03-08T21:27:23.520Z,2.20
2018-03-08T21:29:51.428Z,1.70
2018-03-08T21:32:19.356Z,2.10
2018-03-08T21:34:47.270Z,2.67
2018-03-08T21:37:15.179Z,2.37
2018-03-08T21:39:43.097Z,1.80
2018-03-08T21:42:11.011Z,2.20
2018-03-08T21:44:38.916Z,2.30
2018-03-08T21:47:06.821Z,4.40
2018-03-08T21:49:34.732Z,2.87
2018-03-08T21:52:02.658Z,3.70
2018-03-08T21:54:30.569Z,2.80
2018-03-08T21:56:58.931Z,3.37
2018-03-08T21:59:26.933Z,3.03
2018-03-08T22:01:54.832Z,4.03
2018-03-08T22:04:22.729Z,4.10
2018-03-08T22:06:50.632Z,5.60
2018-03-08T22:09:18.532Z,3.80
2018-03-08T22:11:46.442Z,4.20
2018-03-08T22:14:14.368Z,3.90
2018-03-08T22:16:42.276Z,6.20
2018-03-08T22:19:10.187Z,4.37
2018-03-08T22:21:38.212Z,4.20
2018-03-08T22:24:06.116Z,5.47
2018-03-08T22:26:34.013Z,4.43
2018-03-08T22:29:01.937Z,5.57
2018-03-08T22:31:29.848Z,5.90
2018-03-08T22:33:57.761Z,6.53
2018-03-08T22:36:25.688Z,6.70
2018-03-08T22:38:53.588Z,7.07
2018-03-08T22:41:21.497Z,7.53
2018-03-08T22:43:49.409Z,6.87
2018-03-08T22:46:17.322Z,7.30
2018-03-08T22:48:45.249Z,8.80
2018-03-08T22:51:13.168Z,7.60
2018-03-08T22:53:41.080Z,7.77
2018-03-08T22:56:09.412Z,7.53
2018-03-08T22:58:37.316Z,8.30
2018-03-08T23:01:05.260Z,8.67
2018-03-08T23:03:33.168Z,8.40
2018-03-08T23:06:01.088Z,9.07
2018-03-08T23:08:28.990Z,8.67
2018-03-08T23:10:56.893Z,10.20
2018-03-08T23:13:24.793Z,11.40
2018-03-08T23:15:52.748Z,10.17
2018-03-08T23:18:20.669Z,10.40
2018-03-08T23:20:48.643Z,10.70
2018-03-08T23:23:16.568Z,10.53
2018-03-08T23:25:44.476Z,10.87
2018-03-08T23:28:12.425Z,10.93
2018-03-08T23:30:40.777Z,11.17
2018-03-08T23:33:08.701Z,11.57
2018-03-08T23:35:36.620Z,10.43
2018-03-08T23:38:04.537Z,11.33
2018-03-08T23:43:06.064Z,10.50
2018-03-08T23:45:33.997Z,9.23
2018-03-08T23:48:01.914Z,9.17
2018-03-08T23:50:29.820Z,10.53
2018-03-08T23:52:57.736Z,12.67
2018-03-08T23:55:25.632Z,12.20
2018-03-08T23:57:53.770Z,10.30
